sensor_id;sensor_type;location;lat;lon;timestamp;P1;durP1;ratioP1;P2;durP2;ratioP2
69527;SDS011;57136;51.986;4.468;2022-09-21T00:02:23;7.90;;;3.70;;
69527;SDS011;57136;51.986;4.468;2022-09-21T00:04:48;6.35;;;3.40;;
69527;SDS011;57136;51.986;4.468;2022-09-21T00:07:15;10.20;;;3.85;;
69527;SDS011;57136;51.986;4.468;2022-09-21T00:09:40;6.88;;;3.55;;
69527;SDS011;57136;51.986;4.468;2022-09-21T00:12:06;7.25;;;3.80;;
69527;SDS011;57136;51.986;4.468;2022-09-21T00:14:31;6.43;;;3.40;;
69527;SDS011;57136;51.986;4.468;2022-09-21T00:16:57;5.70;;;3.80;;
69527;SDS011;57136;51.986;4.468;2022-09-21T00:19:22;8.30;;;4.82;;
69527;SDS011;57136;51.986;4.468;2022-09-21T00:21:47;5.40;;;3.38;;
69527;SDS011;57136;51.986;4.468;2022-09-21T00:24:13;5.55;;;3.53;;
69527;SDS011;57136;51.986;4.468;2022-09-21T00:26:38;6.45;;;3.35;;
69527;SDS011;57136;51.986;4.468;2022-09-21T00:29:03;4.60;;;3.50;;
69527;SDS011;57136;51.986;4.468;2022-09-21T00:31:29;5.75;;;3.47;;
69527;SDS011;57136;51.986;4.468;2022-09-21T00:33:56;4.43;;;3.00;;
69527;SDS011;57136;51.986;4.468;2022-09-21T00:36:22;5.65;;;3.17;;
69527;SDS011;57136;51.986;4.468;2022-09-21T00:38:50;6.25;;;3.35;;
69527;SDS011;57136;51.986;4.468;2022-09-21T00:41:22;7.13;;;3.67;;
69527;SDS011;57136;51.986;4.468;2022-09-21T00:46:42;6.60;;;3.05;;
69527;SDS011;57136;51.986;4.468;2022-09-21T00:49:09;5.00;;;3.33;;
69527;SDS011;57136;51.986;4.468;2022-09-21T00:51:35;5.75;;;3.28;;
69527;SDS011;57136;51.986;4.468;2022-09-21T00:54:03;5.03;;;3.25;;
69527;SDS011;57136;51.986;4.468;2022-09-21T00:56:33;6.20;;;3.10;;
69527;SDS011;57136;51.986;4.468;2022-09-21T00:59:00;4.88;;;3.30;;
69527;SDS011;57136;51.986;4.468;2022-09-21T01:01:27;6.70;;;3.78;;
69527;SDS011;57136;51.986;4.468;2022-09-21T01:03:53;8.93;;;3.67;;
69527;SDS011;57136;51.986;4.468;2022-09-21T01:06:21;7.75;;;3.83;;
69527;SDS011;57136;51.986;4.468;2022-09-21T01:08:52;5.95;;;3.30;;
69527;SDS011;57136;51.986;4.468;2022-09-21T01:22:42;5.20;;;3.60;;
69527;SDS011;57136;51.986;4.468;2022-09-21T01:28:20;6.93;;;3.53;;
69527;SDS011;57136;51.986;4.468;2022-09-21T01:31:06;4.47;;;2.93;;
69527;SDS011;57136;51.986;4.468;2022-09-21T01:33:42;4.30;;;3.15;;
69527;SDS011;57136;51.986;4.468;2022-09-21T01:36:11;6.70;;;3.53;;
69527;SDS011;57136;51.986;4.468;2022-09-21T01:38:44;4.57;;;3.17;;
69527;SDS011;57136;51.986;4.468;2022-09-21T01:41:14;9.40;;;4.38;;
69527;SDS011;57136;51.986;4.468;2022-09-21T01:43:44;4.68;;;3.13;;
69527;SDS011;57136;51.986;4.468;2022-09-21T01:46:16;7.97;;;3.13;;
69527;SDS011;57136;51.986;4.468;2022-09-21T01:48:45;6.53;;;3.50;;
69527;SDS011;57136;51.986;4.468;2022-09-21T01:51:14;5.63;;;3.10;;
69527;SDS011;57136;51.986;4.468;2022-09-21T01:53:51;4.75;;;3.38;;
69527;SDS011;57136;51.986;4.468;2022-09-21T01:56:21;4.93;;;3.17;;
69527;SDS011;57136;51.986;4.468;2022-09-21T01:58:54;4.55;;;3.15;;
69527;SDS011;57136;51.986;4.468;2022-09-21T02:01:28;7.30;;;3.53;;
69527;SDS011;57136;51.986;4.468;2022-09-21T02:03:59;4.70;;;2.80;;
69527;SDS011;57136;51.986;4.468;2022-09-21T02:06:29;6.22;;;3.50;;
69527;SDS011;57136;51.986;4.468;2022-09-21T02:08:55;6.82;;;3.28;;
69527;SDS011;57136;51.986;4.468;2022-09-21T02:11:22;5.47;;;3.40;;
69527;SDS011;57136;51.986;4.468;2022-09-21T02:13:47;8.93;;;3.13;;
69527;SDS011;57136;51.986;4.468;2022-09-21T02:19:13;6.57;;;3.67;;
69527;SDS011;57136;51.986;4.468;2022-09-21T02:22:03;8.25;;;3.28;;
69527;SDS011;57136;51.986;4.468;2022-09-21T02:27:05;7.00;;;3.38;;
69527;SDS011;57136;51.986;4.468;2022-09-21T02:29:44;7.03;;;3.40;;
69527;SDS011;57136;51.986;4.468;2022-09-21T02:43:55;4.00;;;2.97;;
69527;SDS011;57136;51.986;4.468;2022-09-21T02:47:09;6.47;;;3.67;;
69527;SDS011;57136;51.986;4.468;2022-09-21T02:49:30;5.80;;;3.35;;
69527;SDS011;57136;51.986;4.468;2022-09-21T02:52:01;8.15;;;3.30;;
69527;SDS011;57136;51.986;4.468;2022-09-21T02:54:31;6.68;;;3.72;;
69527;SDS011;57136;51.986;4.468;2022-09-21T02:56:59;8.43;;;3.78;;
69527;SDS011;57136;51.986;4.468;2022-09-21T02:59:28;6.30;;;4.00;;
69527;SDS011;57136;51.986;4.468;2022-09-21T03:01:55;11.60;;;5.47;;
69527;SDS011;57136;51.986;4.468;2022-09-21T03:04:21;8.70;;;4.07;;
69527;SDS011;57136;51.986;4.468;2022-09-21T03:06:47;5.80;;;3.63;;
69527;SDS011;57136;51.986;4.468;2022-09-21T03:09:12;8.65;;;4.38;;
69527;SDS011;57136;51.986;4.468;2022-09-21T03:11:38;6.13;;;3.70;;
69527;SDS011;57136;51.986;4.468;2022-09-21T03:14:06;7.68;;;4.50;;
69527;SDS011;57136;51.986;4.468;2022-09-21T03:16:33;11.52;;;4.32;;
69527;SDS011;57136;51.986;4.468;2022-09-21T03:18:59;8.38;;;4.07;;
69527;SDS011;57136;51.986;4.468;2022-09-21T03:21:24;9.77;;;5.50;;
69527;SDS011;57136;51.986;4.468;2022-09-21T03:23:50;7.57;;;4.38;;
69527;SDS011;57136;51.986;4.468;2022-09-21T03:26:15;6.80;;;4.68;;
69527;SDS011;57136;51.986;4.468;2022-09-21T03:28:41;8.55;;;4.72;;
69527;SDS011;57136;51.986;4.468;2022-09-21T03:31:06;7.00;;;4.80;;
69527;SDS011;57136;51.986;4.468;2022-09-21T03:33:31;9.45;;;4.60;;
69527;SDS011;57136;51.986;4.468;2022-09-21T03:35:57;11.15;;;4.60;;
69527;SDS011;57136;51.986;4.468;2022-09-21T03:38:22;6.55;;;4.50;;
69527;SDS011;57136;51.986;4.468;2022-09-21T03:40:49;5.93;;;4.00;;
69527;SDS011;57136;51.986;4.468;2022-09-21T03:43:15;6.47;;;4.20;;
69527;SDS011;57136;51.986;4.468;2022-09-21T03:45:40;6.38;;;3.90;;
69527;SDS011;57136;51.986;4.468;2022-09-21T03:48:07;10.55;;;4.22;;
69527;SDS011;57136;51.986;4.468;2022-09-21T03:50:33;8.30;;;4.22;;
69527;SDS011;57136;51.986;4.468;2022-09-21T03:52:58;8.48;;;4.28;;
69527;SDS011;57136;51.986;4.468;2022-09-21T03:55:24;4.68;;;3.53;;
69527;SDS011;57136;51.986;4.468;2022-09-21T03:57:49;6.18;;;4.30;;
69527;SDS011;57136;51.986;4.468;2022-09-21T04:00:16;6.53;;;3.72;;
69527;SDS011;57136;51.986;4.468;2022-09-21T04:02:41;9.93;;;3.72;;
69527;SDS011;57136;51.986;4.468;2022-09-21T04:05:07;5.25;;;3.45;;
69527;SDS011;57136;51.986;4.468;2022-09-21T04:07:34;4.80;;;3.65;;
69527;SDS011;57136;51.986;4.468;2022-09-21T04:10:00;5.47;;;3.50;;
69527;SDS011;57136;51.986;4.468;2022-09-21T04:12:26;6.15;;;3.70;;
69527;SDS011;57136;51.986;4.468;2022-09-21T04:14:51;5.95;;;4.00;;
69527;SDS011;57136;51.986;4.468;2022-09-21T04:17:17;6.95;;;3.90;;
69527;SDS011;57136;51.986;4.468;2022-09-21T04:19:42;7.25;;;3.95;;
69527;SDS011;57136;51.986;4.468;2022-09-21T04:22:12;7.32;;;4.00;;
69527;SDS011;57136;51.986;4.468;2022-09-21T04:24:37;8.57;;;3.97;;
69527;SDS011;57136;51.986;4.468;2022-09-21T04:27:09;7.20;;;3.65;;
69527;SDS011;57136;51.986;4.468;2022-09-21T04:29:36;6.38;;;3.90;;
69527;SDS011;57136;51.986;4.468;2022-09-21T04:32:02;8.57;;;4.05;;
69527;SDS011;57136;51.986;4.468;2022-09-21T04:34:28;8.98;;;3.83;;
69527;SDS011;57136;51.986;4.468;2022-09-21T04:36:55;8.90;;;4.07;;
69527;SDS011;57136;51.986;4.468;2022-09-21T04:39:22;7.75;;;3.63;;
69527;SDS011;57136;51.986;4.468;2022-09-21T04:41:48;5.18;;;4.03;;
69527;SDS011;57136;51.986;4.468;2022-09-21T04:44:13;6.22;;;3.75;;
69527;SDS011;57136;51.986;4.468;2022-09-21T04:46:39;6.40;;;3.90;;
69527;SDS011;57136;51.986;4.468;2022-09-21T04:49:06;7.65;;;3.70;;
69527;SDS011;57136;51.986;4.468;2022-09-21T04:51:32;8.38;;;3.55;;
69527;SDS011;57136;51.986;4.468;2022-09-21T04:53:58;6.05;;;3.85;;
69527;SDS011;57136;51.986;4.468;2022-09-21T04:56:23;5.20;;;3.60;;
69527;SDS011;57136;51.986;4.468;2022-09-21T04:58:49;6.63;;;3.78;;
69527;SDS011;57136;51.986;4.468;2022-09-21T05:01:14;7.68;;;3.80;;
69527;SDS011;57136;51.986;4.468;2022-09-21T05:03:39;5.93;;;3.47;;
69527;SDS011;57136;51.986;4.468;2022-09-21T05:06:05;6.15;;;3.90;;
69527;SDS011;57136;51.986;4.468;2022-09-21T05:08:30;6.15;;;3.60;;
69527;SDS011;57136;51.986;4.468;2022-09-21T05:11:16;5.97;;;3.95;;
69527;SDS011;57136;51.986;4.468;2022-09-21T05:13:43;6.85;;;4.00;;
69527;SDS011;57136;51.986;4.468;2022-09-21T05:16:09;4.95;;;3.40;;
69527;SDS011;57136;51.986;4.468;2022-09-21T05:18:34;5.53;;;3.70;;
69527;SDS011;57136;51.986;4.468;2022-09-21T05:21:00;7.22;;;3.50;;
69527;SDS011;57136;51.986;4.468;2022-09-21T05:23:28;8.05;;;3.47;;
69527;SDS011;57136;51.986;4.468;2022-09-21T05:25:55;7.95;;;3.75;;
69527;SDS011;57136;51.986;4.468;2022-09-21T05:28:20;6.95;;;3.90;;
69527;SDS011;57136;51.986;4.468;2022-09-21T05:30:53;6.20;;;3.80;;
69527;SDS011;57136;51.986;4.468;2022-09-21T05:33:26;7.30;;;3.45;;
69527;SDS011;57136;51.986;4.468;2022-09-21T05:36:10;7.95;;;3.80;;
69527;SDS011;57136;51.986;4.468;2022-09-21T05:39:04;8.35;;;5.18;;
69527;SDS011;57136;51.986;4.468;2022-09-21T05:41:31;13.13;;;4.28;;
69527;SDS011;57136;51.986;4.468;2022-09-21T05:43:56;7.22;;;4.22;;
69527;SDS011;57136;51.986;4.468;2022-09-21T05:46:36;8.50;;;4.28;;
69527;SDS011;57136;51.986;4.468;2022-09-21T05:51:41;7.55;;;4.50;;
69527;SDS011;57136;51.986;4.468;2022-09-21T05:57:07;11.00;;;4.68;;
69527;SDS011;57136;51.986;4.468;2022-09-21T06:05:14;9.32;;;4.50;;
69527;SDS011;57136;51.986;4.468;2022-09-21T06:07:40;5.95;;;4.30;;
69527;SDS011;57136;51.986;4.468;2022-09-21T06:10:06;11.25;;;5.40;;
69527;SDS011;57136;51.986;4.468;2022-09-21T06:12:36;10.18;;;5.00;;
69527;SDS011;57136;51.986;4.468;2022-09-21T06:15:02;9.07;;;5.10;;
69527;SDS011;57136;51.986;4.468;2022-09-21T06:17:29;8.65;;;4.72;;
69527;SDS011;57136;51.986;4.468;2022-09-21T06:19:56;13.30;;;5.15;;
69527;SDS011;57136;51.986;4.468;2022-09-21T06:22:21;8.15;;;4.57;;
69527;SDS011;57136;51.986;4.468;2022-09-21T06:24:46;10.90;;;5.05;;
69527;SDS011;57136;51.986;4.468;2022-09-21T06:27:12;7.35;;;4.85;;
69527;SDS011;57136;51.986;4.468;2022-09-21T06:29:37;9.93;;;5.40;;
69527;SDS011;57136;51.986;4.468;2022-09-21T06:32:02;9.43;;;5.38;;
69527;SDS011;57136;51.986;4.468;2022-09-21T06:34:28;9.75;;;5.05;;
69527;SDS011;57136;51.986;4.468;2022-09-21T06:36:54;11.05;;;5.07;;
69527;SDS011;57136;51.986;4.468;2022-09-21T06:39:20;12.18;;;5.75;;
69527;SDS011;57136;51.986;4.468;2022-09-21T06:41:45;9.13;;;5.75;;
69527;SDS011;57136;51.986;4.468;2022-09-21T06:44:11;10.18;;;5.90;;
69527;SDS011;57136;51.986;4.468;2022-09-21T06:46:36;13.25;;;6.20;;
69527;SDS011;57136;51.986;4.468;2022-09-21T06:49:01;10.05;;;6.45;;
69527;SDS011;57136;51.986;4.468;2022-09-21T06:51:27;13.85;;;5.50;;
69527;SDS011;57136;51.986;4.468;2022-09-21T06:53:55;8.73;;;5.95;;
69527;SDS011;57136;51.986;4.468;2022-09-21T06:56:22;11.43;;;5.60;;
69527;SDS011;57136;51.986;4.468;2022-09-21T06:58:48;11.27;;;6.55;;
69527;SDS011;57136;51.986;4.468;2022-09-21T07:01:14;12.85;;;5.60;;
69527;SDS011;57136;51.986;4.468;2022-09-21T07:03:40;10.95;;;5.03;;
69527;SDS011;57136;51.986;4.468;2022-09-21T07:06:07;7.55;;;4.32;;
69527;SDS011;57136;51.986;4.468;2022-09-21T07:08:35;8.90;;;5.13;;
69527;SDS011;57136;51.986;4.468;2022-09-21T07:11:02;9.35;;;5.38;;
69527;SDS011;57136;51.986;4.468;2022-09-21T07:13:28;12.90;;;5.65;;
69527;SDS011;57136;51.986;4.468;2022-09-21T07:15:53;13.30;;;5.72;;
69527;SDS011;57136;51.986;4.468;2022-09-21T07:18:19;10.02;;;5.13;;
69527;SDS011;57136;51.986;4.468;2022-09-21T07:20:45;15.40;;;6.00;;
69527;SDS011;57136;51.986;4.468;2022-09-21T07:23:13;13.05;;;5.47;;
69527;SDS011;57136;51.986;4.468;2022-09-21T07:25:41;15.05;;;6.13;;
69527;SDS011;57136;51.986;4.468;2022-09-21T07:28:10;11.35;;;4.95;;
69527;SDS011;57136;51.986;4.468;2022-09-21T07:30:37;9.00;;;5.60;;
69527;SDS011;57136;51.986;4.468;2022-09-21T07:33:03;10.35;;;5.60;;
69527;SDS011;57136;51.986;4.468;2022-09-21T07:35:30;13.65;;;5.20;;
69527;SDS011;57136;51.986;4.468;2022-09-21T07:38:03;11.90;;;4.47;;
69527;SDS011;57136;51.986;4.468;2022-09-21T07:40:30;8.90;;;3.63;;
69527;SDS011;57136;51.986;4.468;2022-09-21T07:42:57;11.63;;;4.18;;
69527;SDS011;57136;51.986;4.468;2022-09-21T07:45:23;10.68;;;4.03;;
69527;SDS011;57136;51.986;4.468;2022-09-21T07:47:49;11.63;;;4.30;;
69527;SDS011;57136;51.986;4.468;2022-09-21T07:50:18;9.77;;;4.18;;
69527;SDS011;57136;51.986;4.468;2022-09-21T07:52:44;9.32;;;3.53;;
69527;SDS011;57136;51.986;4.468;2022-09-21T07:55:09;9.95;;;3.75;;
69527;SDS011;57136;51.986;4.468;2022-09-21T07:57:34;8.18;;;3.63;;
69527;SDS011;57136;51.986;4.468;2022-09-21T08:00:18;11.23;;;3.10;;
69527;SDS011;57136;51.986;4.468;2022-09-21T08:02:44;7.97;;;3.25;;
69527;SDS011;57136;51.986;4.468;2022-09-21T08:05:09;12.82;;;3.03;;
69527;SDS011;57136;51.986;4.468;2022-09-21T08:07:34;15.93;;;3.92;;
69527;SDS011;57136;51.986;4.468;2022-09-21T08:10:00;7.30;;;2.83;;
69527;SDS011;57136;51.986;4.468;2022-09-21T08:12:25;5.35;;;2.53;;
69527;SDS011;57136;51.986;4.468;2022-09-21T08:14:50;6.57;;;2.50;;
69527;SDS011;57136;51.986;4.468;2022-09-21T08:17:15;8.90;;;1.70;;
69527;SDS011;57136;51.986;4.468;2022-09-21T08:19:41;7.25;;;1.92;;
69527;SDS011;57136;51.986;4.468;2022-09-21T08:22:06;7.28;;;2.13;;
69527;SDS011;57136;51.986;4.468;2022-09-21T08:24:32;4.80;;;1.40;;
69527;SDS011;57136;51.986;4.468;2022-09-21T08:26:59;8.15;;;2.65;;
69527;SDS011;57136;51.986;4.468;2022-09-21T08:29:24;14.77;;;3.05;;
69527;SDS011;57136;51.986;4.468;2022-09-21T08:31:50;5.80;;;1.90;;
69527;SDS011;57136;51.986;4.468;2022-09-21T08:34:17;7.47;;;1.83;;
69527;SDS011;57136;51.986;4.468;2022-09-21T08:36:43;7.82;;;1.83;;
69527;SDS011;57136;51.986;4.468;2022-09-21T08:39:09;5.63;;;1.77;;
69527;SDS011;57136;51.986;4.468;2022-09-21T08:44:34;7.68;;;1.65;;
69527;SDS011;57136;51.986;4.468;2022-09-21T08:49:59;4.28;;;1.40;;
69527;SDS011;57136;51.986;4.468;2022-09-21T08:52:27;8.88;;;1.55;;
69527;SDS011;57136;51.986;4.468;2022-09-21T08:54:57;5.53;;;1.25;;
69527;SDS011;57136;51.986;4.468;2022-09-21T08:57:27;2.85;;;1.20;;
69527;SDS011;57136;51.986;4.468;2022-09-21T08:59:54;5.72;;;1.27;;
69527;SDS011;57136;51.986;4.468;2022-09-21T09:05:27;5.00;;;0.85;;
69527;SDS011;57136;51.986;4.468;2022-09-21T09:11:12;3.00;;;1.10;;
69527;SDS011;57136;51.986;4.468;2022-09-21T09:16:35;3.53;;;0.88;;
69527;SDS011;57136;51.986;4.468;2022-09-21T09:19:17;4.13;;;1.00;;
69527;SDS011;57136;51.986;4.468;2022-09-21T09:21:48;4.93;;;1.03;;
69527;SDS011;57136;51.986;4.468;2022-09-21T09:24:31;3.55;;;0.80;;
69527;SDS011;57136;51.986;4.468;2022-09-21T09:27:20;5.18;;;1.17;;
69527;SDS011;57136;51.986;4.468;2022-09-21T09:34:55;4.20;;;0.93;;
69527;SDS011;57136;51.986;4.468;2022-09-21T09:37:30;5.53;;;1.20;;
69527;SDS011;57136;51.986;4.468;2022-09-21T09:40:00;5.65;;;1.17;;
69527;SDS011;57136;51.986;4.468;2022-09-21T09:42:50;7.30;;;1.50;;
69527;SDS011;57136;51.986;4.468;2022-09-21T09:45:36;5.85;;;1.05;;
69527;SDS011;57136;51.986;4.468;2022-09-21T09:48:45;4.20;;;1.20;;
69527;SDS011;57136;51.986;4.468;2022-09-21T09:51:23;6.07;;;1.60;;
69527;SDS011;57136;51.986;4.468;2022-09-21T09:53:50;8.05;;;1.05;;
69527;SDS011;57136;51.986;4.468;2022-09-21T09:56:18;2.83;;;0.90;;
69527;SDS011;57136;51.986;4.468;2022-09-21T09:58:57;7.00;;;1.10;;
69527;SDS011;57136;51.986;4.468;2022-09-21T10:01:43;6.20;;;1.08;;
69527;SDS011;57136;51.986;4.468;2022-09-21T10:04:12;4.90;;;0.98;;
69527;SDS011;57136;51.986;4.468;2022-09-21T10:06:40;5.80;;;1.13;;
69527;SDS011;57136;51.986;4.468;2022-09-21T10:11:44;5.55;;;1.20;;
69527;SDS011;57136;51.986;4.468;2022-09-21T10:14:13;5.30;;;0.85;;
69527;SDS011;57136;51.986;4.468;2022-09-21T10:16:45;3.83;;;1.02;;
69527;SDS011;57136;51.986;4.468;2022-09-21T10:19:25;4.47;;;0.85;;
69527;SDS011;57136;51.986;4.468;2022-09-21T10:21:55;2.50;;;1.00;;
69527;SDS011;57136;51.986;4.468;2022-09-21T10:24:24;4.28;;;1.27;;
69527;SDS011;57136;51.986;4.468;2022-09-21T10:27:11;1.58;;;0.90;;
69527;SDS011;57136;51.986;4.468;2022-09-21T10:29:42;5.35;;;1.13;;
69527;SDS011;57136;51.986;4.468;2022-09-21T10:37:27;4.85;;;1.48;;
69527;SDS011;57136;51.986;4.468;2022-09-21T10:42:47;5.85;;;0.95;;
69527;SDS011;57136;51.986;4.468;2022-09-21T10:45:15;4.38;;;1.27;;
69527;SDS011;57136;51.986;4.468;2022-09-21T10:47:49;4.55;;;0.80;;
69527;SDS011;57136;51.986;4.468;2022-09-21T10:52:54;1.75;;;0.85;;
69527;SDS011;57136;51.986;4.468;2022-09-21T10:55:23;2.58;;;1.73;;
69527;SDS011;57136;51.986;4.468;2022-09-21T10:57:50;5.18;;;0.98;;
69527;SDS011;57136;51.986;4.468;2022-09-21T11:02:45;2.95;;;0.60;;
69527;SDS011;57136;51.986;4.468;2022-09-21T11:05:14;1.38;;;0.70;;
69527;SDS011;57136;51.986;4.468;2022-09-21T11:24:10;2.28;;;0.93;;
69527;SDS011;57136;51.986;4.468;2022-09-21T11:27:09;3.50;;;0.90;;
69527;SDS011;57136;51.986;4.468;2022-09-21T11:33:01;5.07;;;0.85;;
69527;SDS011;57136;51.986;4.468;2022-09-21T11:47:05;4.55;;;0.70;;
69527;SDS011;57136;51.986;4.468;2022-09-21T12:05:38;3.78;;;0.80;;
69527;SDS011;57136;51.986;4.468;2022-09-21T12:08:13;3.72;;;0.65;;
69527;SDS011;57136;51.986;4.468;2022-09-21T12:14:31;3.03;;;0.80;;
69527;SDS011;57136;51.986;4.468;2022-09-21T12:16:56;3.13;;;0.90;;
69527;SDS011;57136;51.986;4.468;2022-09-21T12:22:15;3.50;;;0.80;;
69527;SDS011;57136;51.986;4.468;2022-09-21T12:24:52;2.05;;;0.70;;
69527;SDS011;57136;51.986;4.468;2022-09-21T12:27:30;2.17;;;0.60;;
69527;SDS011;57136;51.986;4.468;2022-09-21T12:30:03;2.65;;;0.90;;
69527;SDS011;57136;51.986;4.468;2022-09-21T12:32:40;4.88;;;0.75;;
69527;SDS011;57136;51.986;4.468;2022-09-21T12:40:47;1.38;;;0.73;;
69527;SDS011;57136;51.986;4.468;2022-09-21T12:43:22;2.45;;;0.77;;
69527;SDS011;57136;51.986;4.468;2022-09-21T12:46:06;4.40;;;0.68;;
69527;SDS011;57136;51.986;4.468;2022-09-21T12:48:39;1.15;;;0.60;;
69527;SDS011;57136;51.986;4.468;2022-09-21T12:53:45;3.72;;;1.05;;
69527;SDS011;57136;51.986;4.468;2022-09-21T12:58:52;1.25;;;0.85;;
69527;SDS011;57136;51.986;4.468;2022-09-21T13:11:15;3.92;;;0.70;;
69527;SDS011;57136;51.986;4.468;2022-09-21T13:13:22;2.08;;;0.75;;
69527;SDS011;57136;51.986;4.468;2022-09-21T13:15:48;3.30;;;0.80;;
69527;SDS011;57136;51.986;4.468;2022-09-21T13:18:22;3.13;;;0.70;;
69527;SDS011;57136;51.986;4.468;2022-09-21T13:20:49;3.35;;;0.80;;
69527;SDS011;57136;51.986;4.468;2022-09-21T13:23:20;2.97;;;0.60;;
69527;SDS011;57136;51.986;4.468;2022-09-21T13:25:49;2.50;;;0.80;;
69527;SDS011;57136;51.986;4.468;2022-09-21T13:28:23;2.58;;;0.82;;
69527;SDS011;57136;51.986;4.468;2022-09-21T13:37:12;2.55;;;0.90;;
69527;SDS011;57136;51.986;4.468;2022-09-21T13:47:41;3.22;;;1.30;;
69527;SDS011;57136;51.986;4.468;2022-09-21T13:50:10;2.17;;;0.70;;
69527;SDS011;57136;51.986;4.468;2022-09-21T13:52:44;4.22;;;0.85;;
69527;SDS011;57136;51.986;4.468;2022-09-21T13:55:33;2.83;;;0.60;;
69527;SDS011;57136;51.986;4.468;2022-09-21T13:58:00;3.97;;;0.93;;
69527;SDS011;57136;51.986;4.468;2022-09-21T14:01:02;2.33;;;0.70;;
69527;SDS011;57136;51.986;4.468;2022-09-21T14:03:31;3.53;;;0.80;;
69527;SDS011;57136;51.986;4.468;2022-09-21T14:06:20;3.88;;;1.80;;
69527;SDS011;57136;51.986;4.468;2022-09-21T14:08:50;2.15;;;0.80;;
69527;SDS011;57136;51.986;4.468;2022-09-21T14:14:05;2.95;;;1.02;;
69527;SDS011;57136;51.986;4.468;2022-09-21T14:18:58;2.83;;;0.70;;
69527;SDS011;57136;51.986;4.468;2022-09-21T14:21:24;1.58;;;0.70;;
69527;SDS011;57136;51.986;4.468;2022-09-21T14:29:07;2.45;;;1.35;;
69527;SDS011;57136;51.986;4.468;2022-09-21T14:31:45;1.17;;;0.60;;
69527;SDS011;57136;51.986;4.468;2022-09-21T14:34:14;3.25;;;0.65;;
69527;SDS011;57136;51.986;4.468;2022-09-21T14:36:49;1.52;;;0.60;;
69527;SDS011;57136;51.986;4.468;2022-09-21T14:39:26;3.50;;;0.70;;
69527;SDS011;57136;51.986;4.468;2022-09-21T14:41:56;3.22;;;0.75;;
69527;SDS011;57136;51.986;4.468;2022-09-21T14:44:26;1.98;;;0.80;;
69527;SDS011;57136;51.986;4.468;2022-09-21T14:50:06;2.17;;;0.82;;
69527;SDS011;57136;51.986;4.468;2022-09-21T15:01:33;1.92;;;0.88;;
69527;SDS011;57136;51.986;4.468;2022-09-21T15:06:49;3.30;;;0.80;;
69527;SDS011;57136;51.986;4.468;2022-09-21T15:10:17;4.70;;;0.73;;
69527;SDS011;57136;51.986;4.468;2022-09-21T15:18:41;3.17;;;0.70;;
69527;SDS011;57136;51.986;4.468;2022-09-21T15:21:19;2.22;;;0.63;;
69527;SDS011;57136;51.986;4.468;2022-09-21T15:23:53;5.27;;;0.90;;
69527;SDS011;57136;51.986;4.468;2022-09-21T15:26:23;2.65;;;0.60;;
69527;SDS011;57136;51.986;4.468;2022-09-21T15:28:54;2.35;;;0.80;;
69527;SDS011;57136;51.986;4.468;2022-09-21T15:31:22;2.45;;;0.70;;
69527;SDS011;57136;51.986;4.468;2022-09-21T15:33:48;3.25;;;0.73;;
69527;SDS011;57136;51.986;4.468;2022-09-21T15:36:19;7.85;;;3.13;;
69527;SDS011;57136;51.986;4.468;2022-09-21T15:38:48;4.15;;;1.30;;
69527;SDS011;57136;51.986;4.468;2022-09-21T15:41:35;6.03;;;1.27;;
69527;SDS011;57136;51.986;4.468;2022-09-21T15:44:11;3.22;;;0.90;;
69527;SDS011;57136;51.986;4.468;2022-09-21T15:46:39;2.08;;;0.60;;
69527;SDS011;57136;51.986;4.468;2022-09-21T15:49:13;5.68;;;1.00;;
69527;SDS011;57136;51.986;4.468;2022-09-21T15:51:44;2.33;;;0.80;;
69527;SDS011;57136;51.986;4.468;2022-09-21T15:54:22;1.52;;;0.55;;
69527;SDS011;57136;51.986;4.468;2022-09-21T15:56:57;5.97;;;0.90;;
69527;SDS011;57136;51.986;4.468;2022-09-21T15:59:24;4.07;;;1.40;;
69527;SDS011;57136;51.986;4.468;2022-09-21T16:01:54;5.65;;;2.13;;
69527;SDS011;57136;51.986;4.468;2022-09-21T16:04:23;7.85;;;2.63;;
69527;SDS011;57136;51.986;4.468;2022-09-21T16:07:04;1.60;;;0.90;;
69527;SDS011;57136;51.986;4.468;2022-09-21T16:09:41;3.28;;;0.80;;
69527;SDS011;57136;51.986;4.468;2022-09-21T16:14:49;1.45;;;0.75;;
69527;SDS011;57136;51.986;4.468;2022-09-21T16:17:25;3.83;;;1.33;;
69527;SDS011;57136;51.986;4.468;2022-09-21T16:22:27;2.10;;;1.33;;
69527;SDS011;57136;51.986;4.468;2022-09-21T16:25:51;3.40;;;1.10;;
69527;SDS011;57136;51.986;4.468;2022-09-21T16:30:41;3.72;;;1.00;;
69527;SDS011;57136;51.986;4.468;2022-09-21T16:38:55;3.55;;;1.10;;
69527;SDS011;57136;51.986;4.468;2022-09-21T16:41:21;2.83;;;0.80;;
69527;SDS011;57136;51.986;4.468;2022-09-21T16:43:49;3.47;;;0.85;;
69527;SDS011;57136;51.986;4.468;2022-09-21T16:46:15;4.30;;;1.00;;
69527;SDS011;57136;51.986;4.468;2022-09-21T16:48:41;5.65;;;0.60;;
69527;SDS011;57136;51.986;4.468;2022-09-21T16:51:10;3.70;;;1.30;;
69527;SDS011;57136;51.986;4.468;2022-09-21T16:53:36;1.98;;;0.80;;
69527;SDS011;57136;51.986;4.468;2022-09-21T16:56:01;5.72;;;1.27;;
69527;SDS011;57136;51.986;4.468;2022-09-21T16:58:27;2.85;;;0.70;;
69527;SDS011;57136;51.986;4.468;2022-09-21T17:00:53;1.50;;;0.77;;
69527;SDS011;57136;51.986;4.468;2022-09-21T17:03:19;1.85;;;1.00;;
69527;SDS011;57136;51.986;4.468;2022-09-21T17:05:45;2.67;;;1.00;;
69527;SDS011;57136;51.986;4.468;2022-09-21T17:08:10;1.50;;;0.70;;
69527;SDS011;57136;51.986;4.468;2022-09-21T17:10:38;6.20;;;1.60;;
69527;SDS011;57136;51.986;4.468;2022-09-21T17:13:06;4.28;;;1.20;;
69527;SDS011;57136;51.986;4.468;2022-09-21T17:15:34;2.10;;;0.88;;
69527;SDS011;57136;51.986;4.468;2022-09-21T17:18:00;3.67;;;1.88;;
69527;SDS011;57136;51.986;4.468;2022-09-21T17:20:38;4.22;;;1.50;;
69527;SDS011;57136;51.986;4.468;2022-09-21T17:23:05;2.25;;;1.27;;
69527;SDS011;57136;51.986;4.468;2022-09-21T17:25:31;4.32;;;1.52;;
69527;SDS011;57136;51.986;4.468;2022-09-21T17:27:58;4.00;;;1.65;;
69527;SDS011;57136;51.986;4.468;2022-09-21T17:30:24;2.65;;;1.40;;
69527;SDS011;57136;51.986;4.468;2022-09-21T17:32:51;3.30;;;1.20;;
69527;SDS011;57136;51.986;4.468;2022-09-21T17:37:55;3.33;;;1.20;;
69527;SDS011;57136;51.986;4.468;2022-09-21T17:40:21;3.28;;;1.48;;
69527;SDS011;57136;51.986;4.468;2022-09-21T17:42:48;3.10;;;0.90;;
69527;SDS011;57136;51.986;4.468;2022-09-21T17:45:15;2.42;;;0.85;;
69527;SDS011;57136;51.986;4.468;2022-09-21T17:47:52;4.07;;;1.13;;
69527;SDS011;57136;51.986;4.468;2022-09-21T17:50:22;7.32;;;4.25;;
69527;SDS011;57136;51.986;4.468;2022-09-21T17:52:51;7.57;;;2.47;;
69527;SDS011;57136;51.986;4.468;2022-09-21T17:55:36;6.20;;;1.98;;
69527;SDS011;57136;51.986;4.468;2022-09-21T18:00:48;4.30;;;1.55;;
69527;SDS011;57136;51.986;4.468;2022-09-21T18:03:26;2.65;;;1.33;;
69527;SDS011;57136;51.986;4.468;2022-09-21T18:05:53;3.45;;;1.40;;
69527;SDS011;57136;51.986;4.468;2022-09-21T18:08:23;3.03;;;1.10;;
69527;SDS011;57136;51.986;4.468;2022-09-21T18:11:02;4.13;;;1.02;;
69527;SDS011;57136;51.986;4.468;2022-09-21T18:13:43;4.82;;;2.13;;
69527;SDS011;57136;51.986;4.468;2022-09-21T18:22:08;2.55;;;1.45;;
69527;SDS011;57136;51.986;4.468;2022-09-21T18:24:37;4.57;;;1.40;;
69527;SDS011;57136;51.986;4.468;2022-09-21T18:27:02;3.78;;;1.30;;
69527;SDS011;57136;51.986;4.468;2022-09-21T18:29:30;2.78;;;1.23;;
69527;SDS011;57136;51.986;4.468;2022-09-21T18:34:52;6.18;;;1.98;;
69527;SDS011;57136;51.986;4.468;2022-09-21T18:40:27;3.72;;;1.95;;
69527;SDS011;57136;51.986;4.468;2022-09-21T18:46:25;4.93;;;2.63;;
69527;SDS011;57136;51.986;4.468;2022-09-21T18:51:47;4.85;;;2.55;;
69527;SDS011;57136;51.986;4.468;2022-09-21T18:54:20;5.15;;;3.00;;
69527;SDS011;57136;51.986;4.468;2022-09-21T18:56:47;5.90;;;3.20;;
69527;SDS011;57136;51.986;4.468;2022-09-21T18:59:12;7.22;;;4.90;;
69527;SDS011;57136;51.986;4.468;2022-09-21T19:01:40;5.30;;;4.03;;